sensor_id;sensor_type;location;lat;lon;timestamp;pressure;altitude;pressure_sealevel;temperature;humidity
14818;BME280;7500;57.698;11.986;2022-10-16T00:00:38;100453.78;;;16.07;100.00
14818;BME280;7500;57.698;11.986;2022-10-16T00:03:06;100455.22;;;16.00;100.00
14818;BME280;7500;57.698;11.986;2022-10-16T00:05:38;100467.22;;;16.05;100.00
14818;BME280;7500;57.698;11.986;2022-10-16T00:08:05;100457.31;;;16.07;100.00
14818;BME280;7500;57.698;11.986;2022-10-16T00:10:32;100455.63;;;16.06;100.00
14818;BME280;7500;57.698;11.986;2022-10-16T00:12:59;100456.44;;;16.07;100.00
14818;BME280;7500;57.698;11.986;2022-10-16T00:15:25;100467.34;;;16.04;100.00
14818;BME280;7500;57.698;11.986;2022-10-16T00:17:54;100474.00;;;15.98;100.00
14818;BME280;7500;57.698;11.986;2022-10-16T00:20:20;100472.44;;;15.96;100.00
14818;BME280;7500;57.698;11.986;2022-10-16T00:22:47;100479.47;;;15.97;100.00
14818;BME280;7500;57.698;11.986;2022-10-16T00:25:14;100476.53;;;15.89;100.00
14818;BME280;7500;57.698;11.986;2022-10-16T00:27:41;100481.22;;;15.85;100.00
14818;BME280;7500;57.698;11.986;2022-10-16T00:30:08;100493.75;;;15.96;100.00
14818;BME280;7500;57.698;11.986;2022-10-16T00:32:35;100498.78;;;15.99;100.00
14818;BME280;7500;57.698;11.986;2022-10-16T00:35:04;100500.25;;;16.03;100.00
14818;BME280;7500;57.698;11.986;2022-10-16T00:37:31;100494.19;;;16.01;100.00
14818;BME280;7500;57.698;11.986;2022-10-16T00:39:58;100497.00;;;15.99;100.00
14818;BME280;7500;57.698;11.986;2022-10-16T00:42:25;100497.38;;;15.95;100.00
14818;BME280;7500;57.698;11.986;2022-10-16T00:44:53;100501.00;;;15.94;100.00
14818;BME280;7500;57.698;11.986;2022-10-16T00:47:25;100506.53;;;15.91;100.00
14818;BME280;7500;57.698;11.986;2022-10-16T00:49:57;100504.13;;;15.88;100.00
14818;BME280;7500;57.698;11.986;2022-10-16T00:52:26;100502.91;;;15.92;100.00
14818;BME280;7500;57.698;11.986;2022-10-16T00:54:54;100499.63;;;15.88;100.00
14818;BME280;7500;57.698;11.986;2022-10-16T00:57:21;100497.31;;;15.84;100.00
14818;BME280;7500;57.698;11.986;2022-10-16T00:59:49;100507.00;;;15.85;100.00
14818;BME280;7500;57.698;11.986;2022-10-16T01:02:16;100510.63;;;15.84;100.00
14818;BME280;7500;57.698;11.986;2022-10-16T01:04:46;100513.91;;;15.87;100.00
14818;BME280;7500;57.698;11.986;2022-10-16T01:07:18;100513.91;;;15.77;100.00
14818;BME280;7500;57.698;11.986;2022-10-16T01:09:59;100511.69;;;15.71;100.00
14818;BME280;7500;57.698;11.986;2022-10-16T01:12:36;100517.53;;;15.76;100.00
14818;BME280;7500;57.698;11.986;2022-10-16T01:15:10;100517.84;;;15.71;100.00
14818;BME280;7500;57.698;11.986;2022-10-16T01:17:41;100518.81;;;15.70;100.00
14818;BME280;7500;57.698;11.986;2022-10-16T01:20:14;100515.19;;;15.71;100.00
14818;BME280;7500;57.698;11.986;2022-10-16T01:23:01;100523.69;;;15.76;100.00
14818;BME280;7500;57.698;11.986;2022-10-16T01:25:40;100525.50;;;15.76;100.00
14818;BME280;7500;57.698;11.986;2022-10-16T01:28:18;100523.19;;;15.71;100.00
14818;BME280;7500;57.698;11.986;2022-10-16T01:30:50;100524.13;;;15.70;100.00
14818;BME280;7500;57.698;11.986;2022-10-16T01:33:22;100520.50;;;15.71;100.00
14818;BME280;7500;57.698;11.986;2022-10-16T01:35:53;100524.38;;;15.67;100.00
14818;BME280;7500;57.698;11.986;2022-10-16T01:38:25;100531.09;;;15.49;100.00
14818;BME280;7500;57.698;11.986;2022-10-16T01:41:00;100514.63;;;15.44;100.00
14818;BME280;7500;57.698;11.986;2022-10-16T01:43:33;100529.63;;;15.45;100.00
14818;BME280;7500;57.698;11.986;2022-10-16T01:46:02;100529.84;;;15.42;100.00
14818;BME280;7500;57.698;11.986;2022-10-16T01:48:30;100529.63;;;15.45;100.00
14818;BME280;7500;57.698;11.986;2022-10-16T01:51:02;100533.13;;;15.46;100.00
14818;BME280;7500;57.698;11.986;2022-10-16T01:53:30;100534.47;;;15.51;100.00
14818;BME280;7500;57.698;11.986;2022-10-16T01:55:58;100518.75;;;15.48;100.00
14818;BME280;7500;57.698;11.986;2022-10-16T01:58:29;100526.38;;;15.53;100.00
14818;BME280;7500;57.698;11.986;2022-10-16T02:01:01;100524.81;;;15.50;100.00
14818;BME280;7500;57.698;11.986;2022-10-16T02:03:29;100531.91;;;15.50;100.00
14818;BME280;7500;57.698;11.986;2022-10-16T02:05:57;100530.56;;;15.44;100.00
14818;BME280;7500;57.698;11.986;2022-10-16T02:08:27;100518.69;;;15.37;100.00
14818;BME280;7500;57.698;11.986;2022-10-16T02:10:55;100519.19;;;15.42;100.00
14818;BME280;7500;57.698;11.986;2022-10-16T02:13:25;100540.13;;;15.47;100.00
14818;BME280;7500;57.698;11.986;2022-10-16T02:15:54;100544.63;;;15.46;100.00
14818;BME280;7500;57.698;11.986;2022-10-16T02:18:21;100549.19;;;15.44;100.00
14818;BME280;7500;57.698;11.986;2022-10-16T02:20:51;100557.63;;;15.38;100.00
14818;BME280;7500;57.698;11.986;2022-10-16T02:23:33;100554.22;;;15.36;100.00
14818;BME280;7500;57.698;11.986;2022-10-16T02:26:04;100561.69;;;15.31;100.00
14818;BME280;7500;57.698;11.986;2022-10-16T02:28:38;100552.00;;;15.30;100.00
14818;BME280;7500;57.698;11.986;2022-10-16T02:31:11;100564.88;;;15.36;100.00
14818;BME280;7500;57.698;11.986;2022-10-16T02:33:40;100568.16;;;15.40;100.00
14818;BME280;7500;57.698;11.986;2022-10-16T02:36:09;100567.94;;;15.43;100.00
14818;BME280;7500;57.698;11.986;2022-10-16T02:38:36;100572.19;;;15.45;100.00
14818;BME280;7500;57.698;11.986;2022-10-16T02:41:04;100560.72;;;15.45;100.00
14818;BME280;7500;57.698;11.986;2022-10-16T02:43:31;100571.56;;;15.42;100.00
14818;BME280;7500;57.698;11.986;2022-10-16T02:45:58;100567.72;;;15.46;100.00
14818;BME280;7500;57.698;11.986;2022-10-16T02:48:27;100562.94;;;15.38;100.00
14818;BME280;7500;57.698;11.986;2022-10-16T02:50:53;100568.03;;;15.41;100.00
14818;BME280;7500;57.698;11.986;2022-10-16T02:53:20;100559.50;;;15.49;100.00
14818;BME280;7500;57.698;11.986;2022-10-16T02:55:47;100565.59;;;15.38;100.00
14818;BME280;7500;57.698;11.986;2022-10-16T02:58:14;100565.28;;;15.43;100.00
14818;BME280;7500;57.698;11.986;2022-10-16T03:00:41;100562.28;;;15.47;100.00
14818;BME280;7500;57.698;11.986;2022-10-16T03:03:07;100566.41;;;15.51;100.00
14818;BME280;7500;57.698;11.986;2022-10-16T03:05:36;100562.50;;;15.44;100.00
14818;BME280;7500;57.698;11.986;2022-10-16T03:08:03;100562.88;;;15.51;100.00
14818;BME280;7500;57.698;11.986;2022-10-16T03:10:29;100558.03;;;15.45;100.00
14818;BME280;7500;57.698;11.986;2022-10-16T03:12:56;100558.72;;;15.36;100.00
14818;BME280;7500;57.698;11.986;2022-10-16T03:15:23;100564.06;;;15.47;100.00
14818;BME280;7500;57.698;11.986;2022-10-16T03:17:51;100556.22;;;15.45;100.00
14818;BME280;7500;57.698;11.986;2022-10-16T03:20:18;100561.53;;;15.45;100.00
14818;BME280;7500;57.698;11.986;2022-10-16T03:22:46;100559.00;;;15.44;100.00
14818;BME280;7500;57.698;11.986;2022-10-16T03:25:13;100560.19;;;15.40;100.00
14818;BME280;7500;57.698;11.986;2022-10-16T03:27:40;100554.75;;;15.41;100.00
14818;BME280;7500;57.698;11.986;2022-10-16T03:30:08;100552.94;;;15.42;100.00
14818;BME280;7500;57.698;11.986;2022-10-16T03:32:35;100566.63;;;15.48;100.00
14818;BME280;7500;57.698;11.986;2022-10-16T03:35:02;100557.47;;;15.52;100.00
14818;BME280;7500;57.698;11.986;2022-10-16T03:37:28;100566.28;;;15.53;100.00
14818;BME280;7500;57.698;11.986;2022-10-16T03:39:57;100562.44;;;15.57;100.00
14818;BME280;7500;57.698;11.986;2022-10-16T03:42:24;100565.09;;;15.57;100.00
14818;BME280;7500;57.698;11.986;2022-10-16T03:44:51;100569.91;;;15.52;100.00
14818;BME280;7500;57.698;11.986;2022-10-16T03:47:18;100569.16;;;15.50;100.00
14818;BME280;7500;57.698;11.986;2022-10-16T03:49:47;100562.78;;;15.52;100.00
14818;BME280;7500;57.698;11.986;2022-10-16T03:52:13;100565.31;;;15.54;100.00
14818;BME280;7500;57.698;11.986;2022-10-16T03:54:40;100553.78;;;15.42;100.00
14818;BME280;7500;57.698;11.986;2022-10-16T03:57:08;100566.19;;;15.54;100.00
14818;BME280;7500;57.698;11.986;2022-10-16T03:59:35;100561.31;;;15.48;100.00
14818;BME280;7500;57.698;11.986;2022-10-16T04:02:02;100558.53;;;15.50;100.00
14818;BME280;7500;57.698;11.986;2022-10-16T04:04:29;100562.94;;;15.62;100.00
14818;BME280;7500;57.698;11.986;2022-10-16T04:06:56;100552.00;;;16.11;100.00
14818;BME280;7500;57.698;11.986;2022-10-16T04:09:22;100560.94;;;16.10;100.00
14818;BME280;7500;57.698;11.986;2022-10-16T04:11:49;100576.38;;;15.60;100.00
14818;BME280;7500;57.698;11.986;2022-10-16T04:14:17;100569.59;;;15.56;100.00
14818;BME280;7500;57.698;11.986;2022-10-16T04:16:44;100569.81;;;15.53;100.00
14818;BME280;7500;57.698;11.986;2022-10-16T04:19:11;100573.25;;;15.66;100.00
14818;BME280;7500;57.698;11.986;2022-10-16T04:21:38;100567.75;;;15.57;100.00
14818;BME280;7500;57.698;11.986;2022-10-16T04:24:05;100563.41;;;15.56;100.00
14818;BME280;7500;57.698;11.986;2022-10-16T04:26:32;100571.06;;;15.60;100.00
14818;BME280;7500;57.698;11.986;2022-10-16T04:28:59;100561.47;;;15.58;100.00
14818;BME280;7500;57.698;11.986;2022-10-16T04:31:27;100570.31;;;15.58;100.00
14818;BME280;7500;57.698;11.986;2022-10-16T04:33:54;100567.88;;;15.55;100.00
14818;BME280;7500;57.698;11.986;2022-10-16T04:36:21;100565.75;;;15.60;100.00
14818;BME280;7500;57.698;11.986;2022-10-16T04:38:48;100565.84;;;15.59;100.00
14818;BME280;7500;57.698;11.986;2022-10-16T04:41:15;100558.94;;;15.56;100.00
14818;BME280;7500;57.698;11.986;2022-10-16T04:43:42;100567.03;;;15.55;100.00
14818;BME280;7500;57.698;11.986;2022-10-16T04:46:08;100564.50;;;15.53;100.00
14818;BME280;7500;57.698;11.986;2022-10-16T04:48:37;100553.44;;;15.47;100.00
14818;BME280;7500;57.698;11.986;2022-10-16T04:51:04;100567.59;;;15.47;100.00
14818;BME280;7500;57.698;11.986;2022-10-16T04:53:30;100565.06;;;15.46;100.00
14818;BME280;7500;57.698;11.986;2022-10-16T04:55:57;100559.22;;;15.41;100.00
14818;BME280;7500;57.698;11.986;2022-10-16T04:58:24;100574.09;;;15.43;100.00
14818;BME280;7500;57.698;11.986;2022-10-16T05:00:51;100579.56;;;15.42;100.00
14818;BME280;7500;57.698;11.986;2022-10-16T05:03:17;100575.06;;;15.42;100.00
14818;BME280;7500;57.698;11.986;2022-10-16T05:05:46;100547.69;;;15.29;100.00
14818;BME280;7500;57.698;11.986;2022-10-16T05:08:14;100565.00;;;15.35;100.00
14818;BME280;7500;57.698;11.986;2022-10-16T05:10:42;100557.25;;;15.32;100.00
14818;BME280;7500;57.698;11.986;2022-10-16T05:13:09;100544.28;;;15.27;100.00
14818;BME280;7500;57.698;11.986;2022-10-16T05:15:36;100544.56;;;15.23;100.00
14818;BME280;7500;57.698;11.986;2022-10-16T05:18:03;100552.88;;;15.31;100.00
14818;BME280;7500;57.698;11.986;2022-10-16T05:20:30;100557.34;;;15.30;100.00
14818;BME280;7500;57.698;11.986;2022-10-16T05:22:58;100559.03;;;15.31;100.00
14818;BME280;7500;57.698;11.986;2022-10-16T05:25:25;100544.34;;;15.26;100.00
14818;BME280;7500;57.698;11.986;2022-10-16T05:27:52;100557.09;;;15.33;100.00
14818;BME280;7500;57.698;11.986;2022-10-16T05:30:19;100550.13;;;15.20;100.00
14818;BME280;7500;57.698;11.986;2022-10-16T05:32:49;100561.09;;;15.28;100.00
14818;BME280;7500;57.698;11.986;2022-10-16T05:35:17;100558.44;;;15.28;100.00
14818;BME280;7500;57.698;11.986;2022-10-16T05:37:44;100557.59;;;15.27;100.00
14818;BME280;7500;57.698;11.986;2022-10-16T05:40:13;100547.97;;;15.25;100.00
14818;BME280;7500;57.698;11.986;2022-10-16T05:42:40;100549.91;;;15.23;100.00
14818;BME280;7500;57.698;11.986;2022-10-16T05:45:09;100549.66;;;15.26;100.00
14818;BME280;7500;57.698;11.986;2022-10-16T05:47:36;100555.44;;;15.20;100.00
14818;BME280;7500;57.698;11.986;2022-10-16T05:50:03;100539.03;;;15.73;100.00
14818;BME280;7500;57.698;11.986;2022-10-16T05:52:30;100542.75;;;15.59;100.00
14818;BME280;7500;57.698;11.986;2022-10-16T05:54:57;100553.63;;;15.56;100.00
14818;BME280;7500;57.698;11.986;2022-10-16T05:57:25;100557.09;;;15.46;100.00
14818;BME280;7500;57.698;11.986;2022-10-16T05:59:52;100562.06;;;15.50;100.00
14818;BME280;7500;57.698;11.986;2022-10-16T06:02:19;100574.84;;;15.45;100.00
14818;BME280;7500;57.698;11.986;2022-10-16T06:04:46;100567.09;;;15.42;100.00
14818;BME280;7500;57.698;11.986;2022-10-16T06:07:12;100563.59;;;15.42;100.00
14818;BME280;7500;57.698;11.986;2022-10-16T06:09:39;100553.69;;;15.44;100.00
14818;BME280;7500;57.698;11.986;2022-10-16T06:12:06;100559.63;;;15.47;100.00
14818;BME280;7500;57.698;11.986;2022-10-16T06:14:34;100554.00;;;15.39;100.00
14818;BME280;7500;57.698;11.986;2022-10-16T06:17:01;100565.06;;;15.46;100.00
14818;BME280;7500;57.698;11.986;2022-10-16T06:19:27;100563.25;;;15.46;100.00
14818;BME280;7500;57.698;11.986;2022-10-16T06:21:54;100561.88;;;15.41;100.00
14818;BME280;7500;57.698;11.986;2022-10-16T06:24:23;100562.84;;;15.40;100.00
14818;BME280;7500;57.698;11.986;2022-10-16T06:26:50;100551.03;;;15.44;100.00
14818;BME280;7500;57.698;11.986;2022-10-16T06:29:16;100552.91;;;15.65;100.00
14818;BME280;7500;57.698;11.986;2022-10-16T06:31:45;100546.97;;;15.62;100.00
14818;BME280;7500;57.698;11.986;2022-10-16T06:34:11;100558.50;;;15.73;100.00
14818;BME280;7500;57.698;11.986;2022-10-16T06:36:38;100558.50;;;15.73;100.00
14818;BME280;7500;57.698;11.986;2022-10-16T06:39:06;100559.03;;;15.78;100.00
14818;BME280;7500;57.698;11.986;2022-10-16T06:41:33;100574.03;;;15.79;100.00
14818;BME280;7500;57.698;11.986;2022-10-16T06:44:00;100562.78;;;15.86;100.00
14818;BME280;7500;57.698;11.986;2022-10-16T06:46:27;100568.13;;;15.86;100.00
14818;BME280;7500;57.698;11.986;2022-10-16T06:48:55;100557.09;;;15.80;100.00
14818;BME280;7500;57.698;11.986;2022-10-16T06:51:23;100558.56;;;15.84;100.00
14818;BME280;7500;57.698;11.986;2022-10-16T06:53:52;100561.72;;;15.89;100.00
14818;BME280;7500;57.698;11.986;2022-10-16T06:56:21;100555.66;;;15.87;100.00
14818;BME280;7500;57.698;11.986;2022-10-16T06:58:49;100555.31;;;15.91;100.00
14818;BME280;7500;57.698;11.986;2022-10-16T07:01:17;100543.78;;;15.80;100.00
14818;BME280;7500;57.698;11.986;2022-10-16T07:03:46;100554.91;;;16.30;100.00
14818;BME280;7500;57.698;11.986;2022-10-16T07:06:18;100558.41;;;15.75;100.00
14818;BME280;7500;57.698;11.986;2022-10-16T07:08:46;100554.16;;;15.72;100.00
14818;BME280;7500;57.698;11.986;2022-10-16T07:11:15;100554.44;;;15.80;100.00
14818;BME280;7500;57.698;11.986;2022-10-16T07:13:43;100562.47;;;15.91;100.00
14818;BME280;7500;57.698;11.986;2022-10-16T07:16:12;100521.38;;;15.72;100.00
14818;BME280;7500;57.698;11.986;2022-10-16T07:18:40;100554.94;;;15.85;100.00
14818;BME280;7500;57.698;11.986;2022-10-16T07:21:10;100556.19;;;15.92;100.00
14818;BME280;7500;57.698;11.986;2022-10-16T07:23:38;100543.19;;;15.87;100.00
14818;BME280;7500;57.698;11.986;2022-10-16T07:26:06;100569.25;;;15.95;100.00
14818;BME280;7500;57.698;11.986;2022-10-16T07:28:34;100558.56;;;15.84;100.00
14818;BME280;7500;57.698;11.986;2022-10-16T07:31:02;100556.91;;;15.94;100.00
14818;BME280;7500;57.698;11.986;2022-10-16T07:33:30;100537.72;;;15.78;100.00
14818;BME280;7500;57.698;11.986;2022-10-16T07:35:57;100555.94;;;15.95;100.00
14818;BME280;7500;57.698;11.986;2022-10-16T07:38:23;100556.28;;;15.90;100.00
14818;BME280;7500;57.698;11.986;2022-10-16T07:40:57;100557.69;;;15.83;100.00
14818;BME280;7500;57.698;11.986;2022-10-16T07:43:24;100525.28;;;15.79;100.00
14818;BME280;7500;57.698;11.986;2022-10-16T07:45:51;100556.28;;;15.90;100.00
14818;BME280;7500;57.698;11.986;2022-10-16T07:48:19;100546.72;;;15.88;100.00
14818;BME280;7500;57.698;11.986;2022-10-16T07:50:47;100556.81;;;16.06;100.00
14818;BME280;7500;57.698;11.986;2022-10-16T07:53:14;100545.28;;;16.73;100.00
14818;BME280;7500;57.698;11.986;2022-10-16T07:55:41;100550.97;;;16.58;100.00
14818;BME280;7500;57.698;11.986;2022-10-16T07:58:09;100544.97;;;16.10;100.00
14818;BME280;7500;57.698;11.986;2022-10-16T08:00:37;100553.91;;;16.09;100.00
14818;BME280;7500;57.698;11.986;2022-10-16T08:03:03;100554.16;;;16.17;100.00
14818;BME280;7500;57.698;11.986;2022-10-16T08:05:32;100546.53;;;16.13;100.00
14818;BME280;7500;57.698;11.986;2022-10-16T08:07:59;100551.50;;;16.17;100.00
14818;BME280;7500;57.698;11.986;2022-10-16T08:10:27;100553.81;;;16.22;100.00
14818;BME280;7500;57.698;11.986;2022-10-16T08:12:54;100542.44;;;16.20;100.00
14818;BME280;7500;57.698;11.986;2022-10-16T08:15:23;100554.56;;;16.24;100.00
14818;BME280;7500;57.698;11.986;2022-10-16T08:17:57;100555.88;;;16.29;100.00
14818;BME280;7500;57.698;11.986;2022-10-16T08:20:25;100558.53;;;16.29;100.00
14818;BME280;7500;57.698;11.986;2022-10-16T08:22:52;100557.47;;;16.32;100.00
14818;BME280;7500;57.698;11.986;2022-10-16T08:25:19;100558.53;;;16.29;100.00
14818;BME280;7500;57.698;11.986;2022-10-16T08:27:46;100561.59;;;16.36;100.00
14818;BME280;7500;57.698;11.986;2022-10-16T08:30:14;100565.88;;;16.38;100.00
14818;BME280;7500;57.698;11.986;2022-10-16T08:32:42;100575.19;;;16.44;100.00
14818;BME280;7500;57.698;11.986;2022-10-16T08:35:10;100568.88;;;16.45;100.00
14818;BME280;7500;57.698;11.986;2022-10-16T08:37:37;100565.28;;;16.57;100.00
14818;BME280;7500;57.698;11.986;2022-10-16T08:40:07;100561.75;;;16.45;100.00
14818;BME280;7500;57.698;11.986;2022-10-16T08:42:47;100553.88;;;16.44;100.00
14818;BME280;7500;57.698;11.986;2022-10-16T08:45:30;100558.47;;;16.42;100.00
14818;BME280;7500;57.698;11.986;2022-10-16T08:48:12;100566.00;;;16.48;100.00
14818;BME280;7500;57.698;11.986;2022-10-16T08:50:41;100567.22;;;16.55;100.00
14818;BME280;7500;57.698;11.986;2022-10-16T08:53:14;100570.13;;;16.52;100.00
14818;BME280;7500;57.698;11.986;2022-10-16T08:55:44;100572.66;;;16.64;100.00
14818;BME280;7500;57.698;11.986;2022-10-16T08:58:13;100563.22;;;16.71;100.00
14818;BME280;7500;57.698;11.986;2022-10-16T09:00:41;100550.72;;;16.72;100.00
14818;BME280;7500;57.698;11.986;2022-10-16T09:03:17;100560.56;;;16.71;100.00
14818;BME280;7500;57.698;11.986;2022-10-16T09:05:57;100580.78;;;16.63;100.00
14818;BME280;7500;57.698;11.986;2022-10-16T09:08:36;100571.09;;;16.62;100.00
14818;BME280;7500;57.698;11.986;2022-10-16T09:11:10;100567.34;;;16.64;100.00
14818;BME280;7500;57.698;11.986;2022-10-16T09:13:47;100567.69;;;16.71;100.00
14818;BME280;7500;57.698;11.986;2022-10-16T09:16:19;100564.91;;;16.72;100.00
14818;BME280;7500;57.698;11.986;2022-10-16T09:18:56;100573.53;;;16.65;100.00
14818;BME280;7500;57.698;11.986;2022-10-16T09:21:28;100578.59;;;16.57;100.00
14818;BME280;7500;57.698;11.986;2022-10-16T09:23:58;100567.06;;;16.56;100.00
14818;BME280;7500;57.698;11.986;2022-10-16T09:26:25;100567.22;;;16.55;100.00
14818;BME280;7500;57.698;11.986;2022-10-16T09:28:52;100570.00;;;16.42;100.00
14818;BME280;7500;57.698;11.986;2022-10-16T09:31:21;100572.75;;;17.71;100.00
14818;BME280;7500;57.698;11.986;2022-10-16T09:33:53;100571.34;;;16.59;100.00
14818;BME280;7500;57.698;11.986;2022-10-16T09:36:21;100577.25;;;16.51;100.00
14818;BME280;7500;57.698;11.986;2022-10-16T09:39:00;100577.16;;;16.53;100.00
14818;BME280;7500;57.698;11.986;2022-10-16T09:41:27;100566.72;;;16.50;100.00
14818;BME280;7500;57.698;11.986;2022-10-16T09:43:56;100558.47;;;16.53;100.00
14818;BME280;7500;57.698;11.986;2022-10-16T09:46:28;100589.97;;;16.48;100.00
14818;BME280;7500;57.698;11.986;2022-10-16T09:48:58;100573.25;;;16.46;100.00
14818;BME280;7500;57.698;11.986;2022-10-16T09:51:27;100588.28;;;16.69;100.00
14818;BME280;7500;57.698;11.986;2022-10-16T09:53:57;100588.53;;;16.66;100.00
14818;BME280;7500;57.698;11.986;2022-10-16T09:56:26;100579.31;;;16.70;100.00
14818;BME280;7500;57.698;11.986;2022-10-16T09:58:54;100570.00;;;16.75;100.00
14818;BME280;7500;57.698;11.986;2022-10-16T10:01:26;100558.50;;;16.64;100.00
14818;BME280;7500;57.698;11.986;2022-10-16T10:03:57;100553.38;;;16.72;100.00
14818;BME280;7500;57.698;11.986;2022-10-16T10:06:29;100552.91;;;16.78;100.00
14818;BME280;7500;57.698;11.986;2022-10-16T10:09:04;100553.63;;;16.91;100.00
14818;BME280;7500;57.698;11.986;2022-10-16T10:11:44;100561.59;;;17.01;100.00
14818;BME280;7500;57.698;11.986;2022-10-16T10:14:26;100548.19;;;16.81;100.00
14818;BME280;7500;57.698;11.986;2022-10-16T10:17:08;100555.56;;;16.89;100.00
14818;BME280;7500;57.698;11.986;2022-10-16T10:19:43;100542.09;;;16.90;100.00
14818;BME280;7500;57.698;11.986;2022-10-16T10:22:27;100543.69;;;16.93;100.00
14818;BME280;7500;57.698;11.986;2022-10-16T10:25:14;100548.25;;;17.01;100.00
14818;BME280;7500;57.698;11.986;2022-10-16T10:27:51;100552.41;;;16.95;100.00
14818;BME280;7500;57.698;11.986;2022-10-16T10:30:27;100563.09;;;16.84;100.00
14818;BME280;7500;57.698;11.986;2022-10-16T10:33:09;100550.09;;;16.90;100.00
14818;BME280;7500;57.698;11.986;2022-10-16T10:35:45;100556.06;;;16.94;100.00
14818;BME280;7500;57.698;11.986;2022-10-16T10:38:27;100556.41;;;17.00;100.00
14818;BME280;7500;57.698;11.986;2022-10-16T10:41:06;100558.19;;;16.99;100.00
14818;BME280;7500;57.698;11.986;2022-10-16T10:43:46;100558.19;;;16.99;100.00
14818;BME280;7500;57.698;11.986;2022-10-16T10:46:25;100558.47;;;16.97;100.00
14818;BME280;7500;57.698;11.986;2022-10-16T10:49:24;100568.91;;;16.78;100.00
14818;BME280;7500;57.698;11.986;2022-10-16T10:52:02;100588.03;;;16.72;100.00
14818;BME280;7500;57.698;11.986;2022-10-16T10:54:41;100567.41;;;16.30;100.00
14818;BME280;7500;57.698;11.986;2022-10-16T10:57:21;100565.22;;;16.24;100.00
14818;BME280;7500;57.698;11.986;2022-10-16T11:00:02;100558.53;;;16.29;100.00
14818;BME280;7500;57.698;11.986;2022-10-16T11:02:35;100557.88;;;16.38;100.00
14818;BME280;7500;57.698;11.986;2022-10-16T11:05:33;100555.56;;;16.45;100.00
14818;BME280;7500;57.698;11.986;2022-10-16T11:08:10;100553.63;;;16.47;100.00
14818;BME280;7500;57.698;11.986;2022-10-16T11:10:44;100557.03;;;16.49;100.00
14818;BME280;7500;57.698;11.986;2022-10-16T11:13:20;100559.09;;;16.56;100.00
14818;BME280;7500;57.698;11.986;2022-10-16T11:15:53;100558.97;;;16.58;100.00
14818;BME280;7500;57.698;11.986;2022-10-16T11:18:27;100564.06;;;16.61;100.00
14818;BME280;7500;57.698;11.986;2022-10-16T11:20:59;100544.44;;;16.62;100.00
14818;BME280;7500;57.698;11.986;2022-10-16T11:23:33;100533.66;;;16.63;100.00
14818;BME280;7500;57.698;11.986;2022-10-16T11:26:10;100534.00;;;16.70;100.00
14818;BME280;7500;57.698;11.986;2022-10-16T11:28:42;100549.63;;;16.63;100.00
14818;BME280;7500;57.698;11.986;2022-10-16T11:31:17;100540.69;;;16.64;100.00
14818;BME280;7500;57.698;11.986;2022-10-16T11:33:49;100527.94;;;16.68;100.00
14818;BME280;7500;57.698;11.986;2022-10-16T11:36:21;100526.47;;;16.75;100.00
14818;BME280;7500;57.698;11.986;2022-10-16T11:38:54;100527.09;;;16.67;100.00
14818;BME280;7500;57.698;11.986;2022-10-16T11:41:27;100554.88;;;16.65;100.00
14818;BME280;7500;57.698;11.986;2022-10-16T11:44:09;100528.31;;;16.63;100.00
14818;BME280;7500;57.698;11.986;2022-10-16T11:46:49;100523.56;;;16.67;100.00
14818;BME280;7500;57.698;11.986;2022-10-16T11:49:21;100524.91;;;16.61;100.00
14818;BME280;7500;57.698;11.986;2022-10-16T11:51:56;100539.69;;;16.54;100.00
14818;BME280;7500;57.698;11.986;2022-10-16T11:54:32;100533.88;;;16.49;100.00
14818;BME280;7500;57.698;11.986;2022-10-16T11:57:09;100514.38;;;16.49;100.00
14818;BME280;7500;57.698;11.986;2022-10-16T11:59:42;100534.59;;;16.51;100.00
14818;BME280;7500;57.698;11.986;2022-10-16T12:02:29;100607.78;;;16.13;100.00
14818;BME280;7500;57.698;11.986;2022-10-16T12:05:10;101007.69;;;15.96;100.00
14818;BME280;7500;57.698;11.986;2022-10-16T12:07:46;100945.97;;;16.27;100.00
14818;BME280;7500;57.698;11.986;2022-10-16T12:10:25;100859.97;;;15.52;100.00
14818;BME280;7500;57.698;11.986;2022-10-16T12:12:52;100818.19;;;15.15;100.00
14818;BME280;7500;57.698;11.986;2022-10-16T12:15:22;100645.56;;;15.24;100.00
14818;BME280;7500;57.698;11.986;2022-10-16T12:17:49;100625.66;;;15.30;100.00
14818;BME280;7500;57.698;11.986;2022-10-16T12:20:23;100594.56;;;14.94;100.00
14818;BME280;7500;57.698;11.986;2022-10-16T12:22:52;100617.59;;;15.06;100.00
14818;BME280;7500;57.698;11.986;2022-10-16T12:25:25;100615.34;;;15.13;100.00
14818;BME280;7500;57.698;11.986;2022-10-16T12:27:59;100592.19;;;15.02;100.00
14818;BME280;7500;57.698;11.986;2022-10-16T12:30:28;100585.84;;;14.92;100.00
14818;BME280;7500;57.698;11.986;2022-10-16T12:32:57;100582.03;;;15.20;100.00
14818;BME280;7500;57.698;11.986;2022-10-16T12:35:26;100564.28;;;14.84;100.00
14818;BME280;7500;57.698;11.986;2022-10-16T12:38:08;100592.72;;;15.07;100.00
14818;BME280;7500;57.698;11.986;2022-10-16T12:40:43;100605.19;;;14.94;100.00
14818;BME280;7500;57.698;11.986;2022-10-16T12:43:25;100597.22;;;14.94;100.00
14818;BME280;7500;57.698;11.986;2022-10-16T12:46:03;100596.53;;;15.28;100.00
14818;BME280;7500;57.698;11.986;2022-10-16T12:48:30;100585.34;;;15.47;100.00
14818;BME280;7500;57.698;11.986;2022-10-16T12:50:57;100594.06;;;15.49;100.00
14818;BME280;7500;57.698;11.986;2022-10-16T12:53:26;100610.09;;;15.83;100.00
14818;BME280;7500;57.698;11.986;2022-10-16T12:56:04;100607.59;;;15.92;100.00